Time;durP1;ratioP1;P1;durP2;ratioP2;P2;SDS_P1;SDS_P2;PMS_P1;PMS_P2;Temp;Humidity;BMP_temperature;BMP_pressure;BME280_temperature;BME280_humidity;BME280_pressure;Samples;Min_cycle;Max_cycle;Signal;HPM_P1;HPM_P2
2021/04/14 00:02:18;;;;;;;3.80;3.40;;;;;;;-1.30;76.79;99167.38;5059024;28;20632;-75
2021/04/14 00:04:45;;;;;;;5.03;4.10;;;;;;;-1.15;76.62;99160.69;5060641;28;20214;-75
2021/04/14 00:07:13;;;;;;;3.70;3.40;;;;;;;-1.13;76.86;99158.91;5061158;28;20782;-75
2021/04/14 00:09:41;;;;;;;3.83;3.53;;;;;;;-1.07;76.61;99150.84;5061412;28;20649;-75
2021/04/14 00:12:09;;;;;;;4.00;3.70;;;;;;;-1.17;76.10;99149.50;5058805;28;20629;-75
2021/04/14 00:14:38;;;;;;;4.33;4.03;;;;;;;-1.28;76.74;99151.69;5056283;28;20208;-75
2021/04/14 00:17:05;;;;;;;3.53;3.23;;;;;;;-1.32;77.76;99157.00;5058302;28;20229;-75
2021/04/14 00:19:33;;;;;;;3.93;3.63;;;;;;;-1.37;78.00;99147.69;5059721;28;20460;-75
2021/04/14 00:22:00;;;;;;;3.50;3.20;;;;;;;-1.21;77.77;99153.13;5056586;28;20233;-75
2021/04/14 00:24:27;;;;;;;4.43;4.07;;;;;;;-1.23;76.36;99149.75;5059093;28;20206;-74
2021/04/14 00:26:54;;;;;;;3.50;3.30;;;;;;;-1.20;77.12;99149.63;5056562;28;20207;-75
2021/04/14 00:29:21;;;;;;;4.37;3.37;;;;;;;-1.26;77.26;99161.13;5059312;28;20300;-75
2021/04/14 00:31:49;;;;;;;3.63;3.43;;;;;;;-1.33;77.79;99155.31;5053318;28;20668;-75
2021/04/14 00:34:19;;;;;;;4.23;3.93;;;;;;;-1.42;78.26;99150.50;5057405;28;20210;-75
2021/04/14 00:36:48;;;;;;;3.67;3.40;;;;;;;-1.43;79.36;99148.78;5057183;28;20203;-75
2021/04/14 00:39:18;;;;;;;3.77;3.47;;;;;;;-1.52;79.53;99146.53;5056617;28;20203;-75
2021/04/14 00:41:46;;;;;;;4.60;4.30;;;;;;;-1.64;79.39;99153.06;5055984;28;20222;-75
2021/04/14 00:44:14;;;;;;;3.97;3.67;;;;;;;-1.76;80.83;99155.19;5057488;28;20226;-75
2021/04/14 00:46:41;;;;;;;3.57;3.37;;;;;;;-1.78;80.94;99153.59;5058038;28;20616;-75
2021/04/14 00:49:12;;;;;;;6.60;3.63;;;;;;;-1.88;80.95;99153.06;5054219;28;20253;-75
2021/04/14 00:51:39;;;;;;;3.87;3.57;;;;;;;-1.97;82.43;99149.06;5058099;28;20206;-74
2021/04/14 00:54:07;;;;;;;4.10;3.10;;;;;;;-1.90;81.85;99147.09;5054993;28;20679;-74
2021/04/14 00:56:34;;;;;;;4.83;3.53;;;;;;;-2.01;82.37;99150.06;5055620;28;20302;-74
2021/04/14 00:59:02;;;;;;;3.23;3.03;;;;;;;-2.11;82.68;99146.94;5056123;28;20211;-76
2021/04/14 01:01:29;;;;;;;4.67;3.50;;;;;;;-2.16;83.44;99143.69;5056515;28;20699;-75
2021/04/14 01:03:56;;;;;;;3.80;3.50;;;;;;;-2.10;83.73;99146.06;5053497;28;20204;-74
2021/04/14 01:06:26;;;;;;;4.10;3.43;;;;;;;-2.15;83.51;99139.34;5055278;28;20207;-75
2021/04/14 01:08:54;;;;;;;3.73;3.43;;;;;;;-2.20;83.70;99136.91;5053844;28;20209;-75
2021/04/14 01:11:24;;;;;;;4.50;3.90;;;;;;;-2.30;84.13;99140.75;5054179;28;20236;-74
2021/04/14 01:13:51;;;;;;;3.93;3.50;;;;;;;-2.37;84.27;99135.78;5058139;28;20675;-73
2021/04/14 01:16:18;;;;;;;3.80;3.50;;;;;;;-2.27;84.45;99141.50;5054292;28;20294;-74
2021/04/14 01:18:45;;;;;;;3.83;3.53;;;;;;;-2.38;84.72;99141.88;5057842;28;20453;-74
2021/04/14 01:21:19;;;;;;;4.53;4.13;;;;;;;-2.43;85.38;99135.13;5055279;28;20230;-74
2021/04/14 01:23:46;;;;;;;3.53;3.23;;;;;;;-2.42;84.79;99135.09;5055383;28;20219;-73
2021/04/14 01:26:13;;;;;;;3.77;3.43;;;;;;;-2.50;85.73;99137.06;5057431;28;20215;-74
2021/04/14 01:28:44;;;;;;;4.23;3.83;;;;;;;-2.62;86.15;99136.59;5057760;28;20199;-74
2021/04/14 01:31:13;;;;;;;3.63;3.03;;;;;;;-2.68;86.18;99131.63;5053236;28;20622;-75
2021/04/14 01:33:40;;;;;;;5.23;4.13;;;;;;;-2.61;86.87;99137.47;5058930;28;20289;-75
2021/04/14 01:36:09;;;;;;;3.83;3.53;;;;;;;-2.43;87.20;99133.41;5058403;28;20492;-74
2021/04/14 01:38:38;;;;;;;3.87;3.63;;;;;;;-2.60;86.78;99122.72;5058354;28;20209;-75
2021/04/14 01:41:07;;;;;;;4.20;3.43;;;;;;;-2.69;86.86;99122.16;5061404;28;20620;-75
2021/04/14 01:43:34;;;;;;;3.60;3.30;;;;;;;-2.62;87.65;99123.63;5062135;28;20206;-76
2021/04/14 01:46:02;;;;;;;4.07;3.80;;;;;;;-2.57;87.14;99120.88;5060821;28;20734;-75
2021/04/14 01:48:30;;;;;;;3.30;3.10;;;;;;;-2.70;87.68;99123.06;5062049;28;20256;-74
2021/04/14 01:50:57;;;;;;;3.60;3.40;;;;;;;-2.71;87.78;99123.09;5060901;28;20295;-75
2021/04/14 01:53:24;;;;;;;3.90;3.70;;;;;;;-2.80;89.23;99127.69;5056801;28;20207;-75
2021/04/14 01:55:52;;;;;;;3.90;3.60;;;;;;;-2.92;89.68;99120.34;5059175;28;20206;-75
2021/04/14 01:58:23;;;;;;;5.10;3.60;;;;;;;-2.94;89.99;99137.69;5059971;28;20513;-75
2021/04/14 02:00:54;;;;;;;7.90;3.77;;;;;;;-2.94;90.85;99130.75;5060192;28;20450;-75
2021/04/14 02:03:22;;;;;;;4.30;3.90;;;;;;;-3.01;91.23;99136.22;5060061;28;20302;-75
2021/04/14 02:05:49;;;;;;;3.87;3.57;;;;;;;-2.96;92.42;99131.72;5058762;28;20211;-74
2021/04/14 02:08:17;;;;;;;4.77;4.37;;;;;;;-2.97;91.33;99130.84;5061389;28;20202;-75
2021/04/14 02:10:44;;;;;;;5.47;3.67;;;;;;;-2.96;92.10;99132.56;5062616;28;20222;-74
2021/04/14 02:13:15;;;;;;;3.80;3.50;;;;;;;-3.02;92.93;99127.56;5062177;28;20294;-75
2021/04/14 02:15:42;;;;;;;7.20;4.03;;;;;;;-3.09;93.21;99131.28;5061612;28;20202;-75
2021/04/14 02:18:09;;;;;;;4.20;3.93;;;;;;;-3.11;92.96;99135.66;5060254;28;20309;-74
2021/04/14 02:20:37;;;;;;;4.10;3.47;;;;;;;-3.17;93.28;99133.28;5057450;28;20218;-74
2021/04/14 02:23:14;;;;;;;4.07;3.83;;;;;;;-3.25;94.28;99131.75;5060447;28;20308;-73
2021/04/14 02:25:41;;;;;;;3.87;3.60;;;;;;;-3.27;94.58;99132.69;5057291;28;20310;-75
2021/04/14 02:28:09;;;;;;;4.53;4.23;;;;;;;-3.29;95.06;99135.34;5058461;28;20214;-74
2021/04/14 02:30:38;;;;;;;4.73;4.40;;;;;;;-3.32;95.96;99134.59;5060691;28;20233;-75
2021/04/14 02:33:06;;;;;;;4.60;4.20;;;;;;;-3.33;96.03;99138.09;5057467;28;20345;-75
2021/04/14 02:35:34;;;;;;;4.30;3.90;;;;;;;-3.37;95.44;99132.13;5058952;28;20207;-75
2021/04/14 02:38:01;;;;;;;5.33;4.83;;;;;;;-3.37;96.04;99132.13;5059453;28;20726;-75
2021/04/14 02:40:29;;;;;;;3.93;3.73;;;;;;;-3.39;96.59;99134.78;5059411;28;20227;-75
2021/04/14 02:42:56;;;;;;;4.23;3.83;;;;;;;-3.35;97.23;99126.03;5059949;28;20232;-73
2021/04/14 02:45:26;;;;;;;4.33;3.97;;;;;;;-3.38;96.33;99122.66;5057715;28;20618;-75
2021/04/14 02:47:54;;;;;;;4.80;4.50;;;;;;;-3.47;97.12;99130.75;5060104;28;20670;-74
2021/04/14 02:50:22;;;;;;;4.07;3.77;;;;;;;-3.43;97.17;99124.56;5057601;28;20223;-73
2021/04/14 02:52:49;;;;;;;4.57;4.23;;;;;;;-3.45;96.45;99131.53;5053955;28;20207;-73
2021/04/14 02:55:17;;;;;;;4.37;4.07;;;;;;;-3.42;96.65;99131.44;5055035;28;20211;-73
2021/04/14 02:57:45;;;;;;;3.93;3.63;;;;;;;-3.51;96.44;99123.06;5055818;28;20588;-72
2021/04/14 03:00:14;;;;;;;4.50;4.10;;;;;;;-3.58;97.38;99126.75;5060755;28;20225;-73
2021/04/14 03:02:41;;;;;;;4.30;4.00;;;;;;;-3.60;97.74;99130.25;5053856;28;20249;-74
2021/04/14 03:05:11;;;;;;;4.40;4.10;;;;;;;-3.58;97.34;99118.09;5056932;28;20338;-74
2021/04/14 03:07:40;;;;;;;4.93;4.53;;;;;;;-3.63;96.69;99123.41;5056399;28;20195;-73
2021/04/14 03:10:08;;;;;;;4.70;4.30;;;;;;;-3.57;96.48;99119.81;5058791;28;20332;-74
2021/04/14 03:12:35;;;;;;;4.50;4.10;;;;;;;-3.63;96.70;99126.00;5055494;28;20210;-74
2021/04/14 03:15:03;;;;;;;4.90;4.50;;;;;;;-3.73;97.64;99120.28;5061714;28;20317;-74
2021/04/14 03:17:31;;;;;;;4.57;4.00;;;;;;;-3.76;98.30;99122.09;5060112;28;20211;-74
2021/04/14 03:19:58;;;;;;;4.80;4.40;;;;;;;-3.82;98.87;99121.41;5057769;28;20250;-74
2021/04/14 03:22:26;;;;;;;5.97;4.47;;;;;;;-3.76;99.27;99116.91;5060029;28;20238;-74
2021/04/14 03:24:53;;;;;;;3.80;3.50;;;;;;;-3.74;98.17;99121.19;5056158;28;20204;-74
2021/04/14 03:27:20;;;;;;;4.43;4.13;;;;;;;-3.79;98.14;99123.88;5055739;28;20673;-73
2021/04/14 03:29:47;;;;;;;4.37;4.07;;;;;;;-3.74;97.88;99117.72;5062630;28;20721;-74
2021/04/14 03:32:14;;;;;;;4.80;4.40;;;;;;;-3.75;96.80;99122.06;5056241;28;20205;-73
2021/04/14 03:34:41;;;;;;;5.17;4.63;;;;;;;-3.83;97.29;99113.66;5057121;28;20260;-73
2021/04/14 03:37:09;;;;;;;4.40;4.00;;;;;;;-3.86;97.09;99118.94;5059525;28;20742;-75
2021/04/14 03:39:37;;;;;;;4.30;3.90;;;;;;;-3.93;98.20;99116.53;5057322;28;20227;-73
2021/04/14 03:42:05;;;;;;;4.60;4.20;;;;;;;-3.94;98.81;99124.34;5059224;28;20481;-74
2021/04/14 03:44:35;;;;;;;4.00;3.70;;;;;;;-3.99;98.62;99119.28;5056577;28;20206;-74
2021/04/14 03:47:02;;;;;;;4.57;4.07;;;;;;;-4.02;99.15;99108.16;5061056;28;20302;-74
2021/04/14 03:49:31;;;;;;;5.30;4.80;;;;;;;-4.05;99.78;99114.31;5060180;28;20337;-74
2021/04/14 03:51:59;;;;;;;4.20;3.80;;;;;;;-4.08;100.00;99112.63;5054802;28;20303;-74
2021/04/14 03:54:26;;;;;;;5.37;4.30;;;;;;;-4.09;99.98;99112.69;5054245;28;20199;-73
2021/04/14 03:56:54;;;;;;;5.13;4.50;;;;;;;-4.04;99.56;99113.41;5052178;28;20226;-75
2021/04/14 03:59:21;;;;;;;4.33;4.03;;;;;;;-4.07;99.42;99106.56;5055917;28;20211;-74
2021/04/14 04:01:49;;;;;;;5.03;4.50;;;;;;;-4.14;99.67;99102.47;5057932;28;20344;-75
2021/04/14 04:04:16;;;;;;;4.30;4.00;;;;;;;-4.17;100.00;99107.72;5058257;28;21012;-75
2021/04/14 04:06:43;;;;;;;4.27;3.67;;;;;;;-4.19;100.00;99111.25;5053322;28;20305;-75
2021/04/14 04:09:10;;;;;;;4.67;4.27;;;;;;;-4.19;100.00;99109.50;5059708;28;20216;-74
2021/04/14 04:11:37;;;;;;;5.20;4.70;;;;;;;-4.25;100.00;99115.69;5056487;28;20578;-74
2021/04/14 04:14:05;;;;;;;5.30;4.80;;;;;;;-4.21;100.00;99108.72;5061190;28;20202;-69
2021/04/14 04:16:33;;;;;;;4.77;4.40;;;;;;;-4.21;100.00;99108.72;5056762;28;20736;-68
2021/04/14 04:19:00;;;;;;;4.17;3.90;;;;;;;-4.25;100.00;99113.13;5056309;28;20233;-68
2021/04/14 04:21:27;;;;;;;4.50;4.10;;;;;;;-4.28;100.00;99115.78;5057543;28;20237;-70
2021/04/14 04:23:55;;;;;;;4.50;4.20;;;;;;;-4.27;100.00;99122.66;5060108;28;20457;-68
2021/04/14 04:26:22;;;;;;;5.03;4.50;;;;;;;-4.28;100.00;99128.72;5057975;28;20198;-70
2021/04/14 04:28:49;;;;;;;4.07;3.77;;;;;;;-4.24;100.00;99125.16;5060824;28;20601;-69
2021/04/14 04:31:17;;;;;;;5.47;4.10;;;;;;;-4.26;100.00;99113.19;5057240;28;20283;-69
2021/04/14 04:33:44;;;;;;;5.13;4.27;;;;;;;-4.27;100.00;99120.06;5057621;28;20440;-69
2021/04/14 04:36:11;;;;;;;5.40;4.70;;;;;;;-4.32;100.00;99119.34;5056489;28;20225;-69
2021/04/14 04:38:38;;;;;;;7.77;5.00;;;;;;;-4.31;100.00;99128.00;5054930;28;20199;-70
2021/04/14 04:41:06;;;;;;;4.77;4.37;;;;;;;-4.29;100.00;99127.03;5058668;28;20223;-69
2021/04/14 04:43:33;;;;;;;5.93;4.67;;;;;;;-4.29;100.00;99127.03;5057864;28;20245;-69
2021/04/14 04:46:00;;;;;;;5.03;4.63;;;;;;;-4.24;100.00;99114.81;5058607;28;20195;-69
2021/04/14 04:48:28;;;;;;;4.80;4.37;;;;;;;-4.22;100.00;99125.13;5060077;28;20229;-72
2021/04/14 04:50:55;;;;;;;5.13;4.77;;;;;;;-4.22;100.00;99125.97;5056049;28;20319;-72
2021/04/14 04:53:23;;;;;;;5.10;4.70;;;;;;;-4.18;100.00;99134.50;5059122;28;20753;-72
2021/04/14 04:55:52;;;;;;;5.20;4.77;;;;;;;-4.19;100.00;99122.47;5058195;28;20238;-70
2021/04/14 04:58:20;;;;;;;5.07;4.67;;;;;;;-4.18;100.00;99131.06;5055854;28;20651;-69
2021/04/14 05:00:47;;;;;;;5.33;4.60;;;;;;;-4.19;100.00;99138.00;5057468;28;20297;-70
2021/04/14 05:03:16;;;;;;;4.77;4.40;;;;;;;-4.07;100.00;99129.03;5058425;28;20328;-71
2021/04/14 05:05:45;;;;;;;4.53;4.23;;;;;;;-4.02;100.00;99129.75;5055300;28;20262;-71
2021/04/14 05:08:12;;;;;;;6.27;5.07;;;;;;;-3.98;100.00;99136.53;5063355;28;20293;-71
2021/04/14 05:10:39;;;;;;;5.20;4.80;;;;;;;-3.81;100.00;99136.03;5063136;28;20226;-71
2021/04/14 05:13:08;;;;;;;4.90;4.50;;;;;;;-3.70;100.00;99143.50;5062004;28;20326;-71
2021/04/14 05:15:39;;;;;;;6.20;5.17;;;;;;;-3.60;99.97;99148.41;5064526;28;20449;-71
2021/04/14 05:18:06;;;;;;;4.83;4.43;;;;;;;-3.63;100.00;99151.91;5062578;28;20403;-70
2021/04/14 05:20:33;;;;;;;4.73;4.23;;;;;;;-3.59;99.41;99150.97;5061144;28;20223;-70
2021/04/14 05:23:02;;;;;;;5.20;4.80;;;;;;;-3.57;99.82;99148.31;5058443;28;20314;-69
2021/04/14 05:25:31;;;;;;;5.70;5.10;;;;;;;-3.41;99.06;99156.47;5060304;28;20594;-71
2021/04/14 05:28:04;;;;;;;6.63;6.13;;;;;;;-3.41;99.27;99152.16;5060645;28;20415;-72
2021/04/14 05:30:32;;;;;;;6.13;5.53;;;;;;;-3.30;98.44;99148.34;5062183;28;20325;-71
2021/04/14 05:32:59;;;;;;;5.83;5.33;;;;;;;-3.20;98.01;99152.34;5056960;28;20606;-71
2021/04/14 05:35:27;;;;;;;5.03;4.60;;;;;;;-2.94;97.09;99153.28;5057524;28;20218;-70
2021/04/14 05:37:54;;;;;;;6.30;5.70;;;;;;;-2.82;94.84;99152.84;5057162;28;20216;-70
2021/04/14 05:40:23;;;;;;;8.10;5.93;;;;;;;-2.60;93.37;99146.09;5057942;28;20318;-71
2021/04/14 05:42:51;;;;;;;7.07;6.37;;;;;;;-2.50;92.09;99145.72;5060110;28;20772;-71
2021/04/14 05:45:22;;;;;;;7.10;6.47;;;;;;;-2.40;92.45;99150.59;5059009;28;20210;-69
2021/04/14 05:47:49;;;;;;;8.30;6.20;;;;;;;-2.36;92.84;99145.25;5060160;28;20226;-71
2021/04/14 05:50:20;;;;;;;6.73;5.93;;;;;;;-2.21;89.94;99146.47;5059504;28;20310;-72
2021/04/14 05:52:48;;;;;;;6.87;4.53;;;;;;;-1.86;88.44;99148.66;5057939;28;20200;-72
2021/04/14 05:55:16;;;;;;;7.40;4.80;;;;;;;-1.73;86.17;99146.47;5055325;28;20213;-71
2021/04/14 05:57:44;;;;;;;5.20;4.30;;;;;;;-1.65;85.72;99147.00;5055852;28;20203;-70
2021/04/14 06:00:15;;;;;;;4.53;4.20;;;;;;;-1.61;85.61;99156.38;5057330;28;20437;-71
2021/04/14 06:02:42;;;;;;;5.30;4.70;;;;;;;-1.48;87.37;99146.34;5052287;28;20219;-72
2021/04/14 06:05:11;;;;;;;4.43;3.87;;;;;;;-1.52;86.19;99150.00;5058146;28;20274;-72
2021/04/14 06:07:38;;;;;;;4.20;3.90;;;;;;;-1.35;84.05;99149.34;5056037;28;20204;-71
2021/04/14 06:10:07;;;;;;;6.93;4.60;;;;;;;-1.23;83.69;99155.81;5057329;28;20605;-72
2021/04/14 06:12:34;;;;;;;5.77;4.53;;;;;;;-1.34;84.54;99151.03;5057499;28;20301;-71
2021/04/14 06:15:05;;;;;;;4.67;4.27;;;;;;;-1.17;83.19;99155.56;5056978;28;20598;-71
2021/04/14 06:17:32;;;;;;;4.67;4.27;;;;;;;-1.02;83.14;99153.25;5056561;28;20449;-71
2021/04/14 06:20:00;;;;;;;4.57;4.17;;;;;;;-1.03;83.35;99155.00;5060404;28;20218;-72
2021/04/14 06:22:27;;;;;;;4.83;4.43;;;;;;;-0.84;81.70;99148.22;5056259;28;20254;-71
2021/04/14 06:24:54;;;;;;;4.57;4.07;;;;;;;-0.78;82.08;99151.38;5059730;28;20663;-71
2021/04/14 06:27:33;;;;;;;6.87;4.87;;;;;;;-0.76;83.62;99146.13;5054829;28;20691;-71
2021/04/14 06:30:00;;;;;;;5.30;4.80;;;;;;;-0.53;82.00;99147.75;5057998;28;20252;-71
2021/04/14 06:32:28;;;;;;;6.03;4.57;;;;;;;-0.46;81.55;99140.53;5059357;28;20664;-71
2021/04/14 06:34:55;;;;;;;4.97;4.63;;;;;;;-0.34;81.95;99141.78;5061774;28;20226;-71
2021/04/14 06:37:22;;;;;;;5.63;5.13;;;;;;;-0.19;80.33;99142.84;5058541;28;20203;-72
2021/04/14 06:40:03;;;;;;;5.97;5.07;;;;;;;-0.31;81.28;99158.09;5055400;28;20223;-71
2021/04/14 06:42:42;;;;;;;5.23;4.83;;;;;;;0.02;80.15;99146.28;5054326;28;20303;-71
2021/04/14 06:45:19;;;;;;;6.60;5.07;;;;;;;0.14;79.12;99147.47;5058094;28;20210;-71
2021/04/14 06:48:07;;;;;;;6.73;5.47;;;;;;;0.27;78.70;99153.84;5055586;28;20295;-72
2021/04/14 06:50:38;;;;;;;9.47;5.47;;;;;;;0.13;78.89;99148.38;5053544;28;20317;-70
2021/04/14 06:53:26;;;;;;;5.50;4.87;;;;;;;0.25;77.79;99149.59;5058748;28;20303;-70
2021/04/14 06:55:59;;;;;;;5.43;4.93;;;;;;;0.38;77.79;99148.13;5057304;28;20200;-72
2021/04/14 06:58:33;;;;;;;5.23;4.80;;;;;;;0.61;76.45;99148.81;5058369;28;20203;-70
2021/04/14 07:01:03;;;;;;;8.80;5.63;;;;;;;0.64;76.69;99158.25;5056042;28;20219;-73
2021/04/14 07:03:39;;;;;;;15.07;7.97;;;;;;;0.71;76.47;99144.84;5052833;28;20226;-71
2021/04/14 07:06:08;;;;;;;20.33;10.87;;;;;;;0.79;77.08;99146.25;5056443;28;20198;-71
2021/04/14 07:09:00;;;;;;;8.90;6.83;;;;;;;1.03;75.83;99145.97;5057823;28;20202;-71
2021/04/14 07:11:29;;;;;;;10.20;5.90;;;;;;;1.28;74.54;99150.81;5060668;28;20225;-71
2021/04/14 07:13:56;;;;;;;6.57;5.13;;;;;;;1.36;75.01;99143.47;5061489;28;20931;-71
2021/04/14 07:16:44;;;;;;;4.83;4.33;;;;;;;1.72;72.29;99147.75;5058156;28;20677;-71
2021/04/14 07:19:21;;;;;;;5.73;4.23;;;;;;;1.70;74.23;99140.88;5058092;28;20256;-69
2021/04/14 07:21:50;;;;;;;6.47;4.77;;;;;;;1.69;73.85;99141.81;5056111;28;20876;-71
2021/04/14 07:24:22;;;;;;;5.20;4.80;;;;;;;1.99;71.68;99146.38;5056161;28;20206;-70
2021/04/14 07:26:57;;;;;;;5.13;4.73;;;;;;;2.27;71.25;99143.13;5053937;28;20214;-71
2021/04/14 07:29:34;;;;;;;5.07;4.07;;;;;;;2.39;70.73;99146.84;5056496;28;20213;-72
2021/04/14 07:32:11;;;;;;;12.03;7.47;;;;;;;2.48;71.30;99142.88;5055155;28;20642;-71
2021/04/14 07:34:55;;;;;;;4.43;4.07;;;;;;;2.55;69.51;99143.38;5056078;28;21078;-70
2021/04/14 07:37:26;;;;;;;4.23;3.83;;;;;;;2.33;69.19;99139.34;5055921;28;20319;-70
2021/04/14 07:39:59;;;;;;;4.63;4.10;;;;;;;2.50;69.54;99134.94;5055901;28;20776;-69
2021/04/14 07:42:33;;;;;;;4.37;3.67;;;;;;;2.50;69.72;99143.66;5056908;28;20278;-70
2021/04/14 07:45:07;;;;;;;4.83;4.37;;;;;;;2.56;68.72;99138.06;5056500;28;20465;-70
2021/04/14 07:47:35;;;;;;;4.43;4.03;;;;;;;2.46;69.24;99142.09;5057059;28;20205;-71
2021/04/14 07:50:03;;;;;;;4.73;4.33;;;;;;;2.65;68.48;99143.72;5059981;28;20284;-70
2021/04/14 07:52:34;;;;;;;4.73;4.43;;;;;;;2.82;70.03;99145.41;5053735;28;20309;-70
2021/04/14 07:55:01;;;;;;;4.33;4.03;;;;;;;3.22;67.04;99144.88;5056363;28;20211;-70
2021/04/14 07:57:30;;;;;;;6.50;4.27;;;;;;;3.02;67.85;99141.66;5053369;28;20203;-69
2021/04/14 08:00:09;;;;;;;4.53;4.10;;;;;;;3.38;67.38;99136.97;5057045;28;20224;-70
2021/04/14 08:02:36;;;;;;;3.87;3.67;;;;;;;3.47;67.09;99145.13;5056246;28;21082;-70
2021/04/14 08:05:11;;;;;;;5.50;3.83;;;;;;;3.42;65.20;99146.38;5056679;28;20226;-70
2021/04/14 08:07:41;;;;;;;4.10;3.80;;;;;;;3.31;65.95;99147.00;5055168;28;20211;-69
2021/04/14 08:10:12;;;;;;;5.20;3.80;;;;;;;3.26;66.05;99136.75;5055428;28;20250;-70
2021/04/14 08:12:52;;;;;;;5.13;4.53;;;;;;;3.29;66.38;99135.75;5056715;28;20298;-70
2021/04/14 08:15:27;;;;;;;4.37;3.93;;;;;;;3.04;66.38;99135.41;5058740;28;20203;-68
2021/04/14 08:18:10;;;;;;;5.00;4.30;;;;;;;3.45;65.95;99130.47;5056039;28;20194;-70
2021/04/14 08:20:39;;;;;;;4.20;3.90;;;;;;;3.87;64.64;99125.34;5055375;28;21025;-70
2021/04/14 08:23:12;;;;;;;5.43;4.20;;;;;;;4.13;63.82;99121.09;5055514;28;20718;-71
2021/04/14 08:25:45;;;;;;;4.37;4.00;;;;;;;4.34;62.13;99128.59;5054888;28;20201;-71
2021/04/14 08:28:13;;;;;;;4.67;4.13;;;;;;;4.07;62.47;99131.16;5054368;28;20211;-70
2021/04/14 08:30:40;;;;;;;3.90;3.60;;;;;;;3.68;63.36;99121.22;5056999;28;21862;-70
2021/04/14 08:33:18;;;;;;;4.13;3.83;;;;;;;3.90;63.20;99120.75;5053171;28;20210;-70
2021/04/14 08:35:51;;;;;;;5.93;4.00;;;;;;;3.82;62.21;99127.41;5055641;28;20431;-70
2021/04/14 08:38:29;;;;;;;4.80;3.90;;;;;;;3.86;62.32;99118.41;5056089;28;20621;-69
2021/04/14 08:40:59;;;;;;;4.10;3.70;;;;;;;3.39;62.72;99122.94;5058899;28;20803;-71
2021/04/14 08:43:29;;;;;;;3.90;3.53;;;;;;;3.60;62.02;99126.09;5058115;28;20309;-69
2021/04/14 08:46:10;;;;;;;8.10;3.73;;;;;;;3.85;61.90;99119.34;5059186;28;20229;-71
2021/04/14 08:48:38;;;;;;;5.07;4.00;;;;;;;4.34;60.29;99118.09;5059259;28;20661;-71
2021/04/14 08:51:06;;;;;;;4.30;3.90;;;;;;;4.19;60.28;99117.28;5063174;28;20500;-71
2021/04/14 08:53:36;;;;;;;3.73;3.43;;;;;;;4.32;61.01;99128.66;5061830;28;20351;-71
2021/04/14 08:56:04;;;;;;;10.27;4.10;;;;;;;4.45;59.45;99115.63;5062621;28;20645;-70
2021/04/14 08:58:32;;;;;;;5.90;3.47;;;;;;;4.79;58.71;99112.63;5059200;28;20207;-70
2021/04/14 09:00:59;;;;;;;3.80;3.47;;;;;;;4.99;56.00;99119.22;5060019;28;20241;-71
2021/04/14 09:03:28;;;;;;;3.57;3.27;;;;;;;4.93;56.33;99112.56;5056459;28;20789;-71
2021/04/14 09:05:56;;;;;;;3.63;3.20;;;;;;;5.16;55.51;99109.38;5058474;28;20951;-71
2021/04/14 09:08:27;;;;;;;3.63;3.33;;;;;;;5.41;54.25;99098.03;5059621;28;20214;-71
2021/04/14 09:10:57;;;;;;;3.80;3.50;;;;;;;5.60;53.53;99092.38;5058522;28;20231;-70
2021/04/14 09:13:33;;;;;;;3.83;3.30;;;;;;;5.61;52.12;99098.47;5057030;28;20207;-71
2021/04/14 09:16:03;;;;;;;3.30;3.00;;;;;;;4.32;55.27;99110.31;5061210;28;20295;-71
2021/04/14 09:18:33;;;;;;;3.67;3.37;;;;;;;4.56;55.69;99095.75;5058642;28;20225;-71
2021/04/14 09:21:09;;;;;;;4.27;3.57;;;;;;;4.83;55.08;99098.34;5056463;28;20223;-71
2021/04/14 09:23:38;;;;;;;4.03;3.70;;;;;;;5.16;54.38;99088.34;5058100;28;20222;-71
2021/04/14 09:26:14;;;;;;;3.50;2.37;;;;;;;5.53;49.65;99085.03;5060279;28;20203;-71
2021/04/14 09:28:46;;;;;;;6.30;2.53;;;;;;;5.44;50.05;99081.22;5060852;28;20303;-70
2021/04/14 09:31:16;;;;;;;3.80;2.53;;;;;;;5.56;50.73;99080.38;5060688;28;20715;-71
2021/04/14 09:33:45;;;;;;;3.37;3.07;;;;;;;5.47;51.37;99073.97;5059274;28;21203;-72
2021/04/14 09:36:14;;;;;;;3.13;2.67;;;;;;;5.63;50.99;99081.63;5059282;28;20214;-71
2021/04/14 09:38:49;;;;;;;2.60;2.40;;;;;;;5.73;50.86;99079.22;5059361;28;20203;-71
2021/04/14 09:41:42;;;;;;;6.57;2.60;;;;;;;5.28;51.40;99076.16;5061086;28;20316;-71
2021/04/14 09:44:31;;;;;;;2.80;2.60;;;;;;;5.10;49.96;99065.09;5010915;28;20529;-71
2021/04/14 09:47:33;;;;;;;3.43;2.17;;;;;;;5.01;49.88;99063.94;5060151;28;20222;-71
2021/04/14 09:50:21;;;;;;;3.87;2.07;;;;;;;5.24;47.33;99062.38;5063306;28;20226;-71
2021/04/14 09:52:51;;;;;;;2.33;2.03;;;;;;;5.03;46.97;99062.91;5059348;28;20303;-71
2021/04/14 09:55:45;;;;;;;2.57;2.37;;;;;;;4.93;47.63;99062.66;5059404;28;20551;-71
2021/04/14 09:58:16;;;;;;;3.97;2.47;;;;;;;4.92;48.19;99055.72;5059121;28;20309;-71
2021/04/14 10:00:45;;;;;;;2.23;2.03;;;;;;;4.92;49.30;99066.22;5057226;28;20218;-71
2021/04/14 10:03:18;;;;;;;2.50;2.30;;;;;;;4.86;49.42;99055.28;5059942;28;20242;-71
2021/04/14 10:05:50;;;;;;;4.50;2.90;;;;;;;5.14;49.60;99050.81;5057977;28;20211;-70
2021/04/14 10:08:17;;;;;;;2.27;2.13;;;;;;;5.46;48.06;99045.97;5060509;28;20199;-71
2021/04/14 10:10:47;;;;;;;2.23;2.03;;;;;;;5.88;47.41;99048.38;5057921;28;20220;-71
2021/04/14 10:13:17;;;;;;;2.70;2.50;;;;;;;6.34;45.87;99044.28;5058868;28;20207;-71
2021/04/14 10:15:47;;;;;;;2.47;2.10;;;;;;;6.88;45.06;99042.13;5062970;28;20318;-72
2021/04/14 10:18:21;;;;;;;2.50;2.30;;;;;;;7.17;44.99;99038.25;5062760;28;20693;-72
2021/04/14 10:20:49;;;;;;;5.00;2.70;;;;;;;6.67;44.31;99041.94;5060995;28;20229;-71
2021/04/14 10:23:19;;;;;;;5.77;4.47;;;;;;;6.07;45.93;99032.16;5061487;28;20240;-72
2021/04/14 10:25:47;;;;;;;5.73;5.03;;;;;;;6.16;44.48;99035.94;5054462;28;20210;-71
2021/04/14 10:28:21;;;;;;;3.73;1.70;;;;;;;5.77;40.03;99035.97;5063007;28;20206;-72
2021/04/14 10:30:50;;;;;;;2.50;1.80;;;;;;;5.52;41.50;99031.59;5055541;28;20259;-72
2021/04/14 10:33:21;;;;;;;1.60;1.50;;;;;;;5.16;42.20;99035.78;5058584;28;20318;-72
2021/04/14 10:35:49;;;;;;;2.20;1.90;;;;;;;5.14;41.89;99038.53;5060175;28;20663;-72
2021/04/14 10:38:27;;;;;;;2.27;1.93;;;;;;;5.30;41.80;99038.34;5060009;28;20298;-72
2021/04/14 10:40:55;;;;;;;1.17;1.17;;;;;;;5.09;40.28;99030.09;5063743;28;20594;-72
2021/04/14 10:43:25;;;;;;;1.10;1.10;;;;;;;4.92;39.17;99032.06;5057191;28;20314;-72
2021/04/14 10:45:55;;;;;;;4.13;1.40;;;;;;;5.25;39.33;99029.06;5057591;28;20203;-73
2021/04/14 10:48:23;;;;;;;1.60;1.50;;;;;;;5.53;39.93;99025.38;5061848;28;20717;-72
2021/04/14 10:50:50;;;;;;;2.20;2.10;;;;;;;5.42;41.52;99026.13;5060682;28;20219;-71
2021/04/14 10:53:18;;;;;;;2.33;1.70;;;;;;;5.60;41.61;99025.81;5060877;28;20195;-72
2021/04/14 10:55:47;;;;;;;2.00;1.90;;;;;;;5.60;40.26;99024.00;5059286;28;21807;-72
2021/04/14 10:58:20;;;;;;;1.73;1.53;;;;;;;5.71;41.90;99015.38;5057316;28;20227;-72
2021/04/14 11:00:53;;;;;;;5.60;2.17;;;;;;;5.93;43.20;99016.50;5060979;28;20227;-73
2021/04/14 11:03:23;;;;;;;3.40;2.60;;;;;;;5.67;44.73;99011.28;5061615;28;20223;-72
2021/04/14 11:05:52;;;;;;;3.10;2.27;;;;;;;5.68;45.29;99010.31;5061740;28;20209;-73
2021/04/14 11:08:20;;;;;;;2.60;2.50;;;;;;;6.28;44.69;99005.25;5060943;28;20299;-73
2021/04/14 11:10:49;;;;;;;3.00;2.70;;;;;;;6.08;44.58;98998.81;5058010;28;20225;-73
2021/04/14 11:13:19;;;;;;;4.57;2.40;;;;;;;6.53;42.44;98995.53;5061586;28;20217;-73
2021/04/14 11:15:48;;;;;;;3.87;2.47;;;;;;;6.61;43.39;98998.44;5057661;28;20203;-72
2021/04/14 11:18:18;;;;;;;2.63;2.43;;;;;;;6.91;42.83;98989.19;5061136;28;20293;-73
2021/04/14 11:20:51;;;;;;;3.53;2.37;;;;;;;6.88;42.61;99001.78;5060412;28;20848;-72
2021/04/14 11:23:24;;;;;;;4.23;2.43;;;;;;;7.07;41.41;98990.69;5057950;28;20321;-72
2021/04/14 11:26:04;;;;;;;3.63;2.53;;;;;;;7.11;41.38;99000.03;5058561;28;20195;-71
2021/04/14 11:28:40;;;;;;;2.73;2.53;;;;;;;7.20;41.07;98988.78;5055506;28;20199;-71
2021/04/14 11:31:09;;;;;;;2.60;2.40;;;;;;;7.55;41.33;98986.97;5058448;28;20635;-71
2021/04/14 11:33:37;;;;;;;2.30;2.00;;;;;;;8.01;40.83;98976.41;5055693;28;20233;-72
2021/04/14 11:36:17;;;;;;;3.60;2.20;;;;;;;7.23;39.80;98991.16;5054401;28;20195;-72
2021/04/14 11:38:45;;;;;;;4.03;2.20;;;;;;;7.71;40.62;98985.78;5060285;28;20655;-73
2021/04/14 11:41:14;;;;;;;2.43;2.20;;;;;;;8.31;39.92;98988.06;5058643;28;20717;-72
2021/04/14 11:43:43;;;;;;;3.47;1.90;;;;;;;8.19;39.44;98988.09;5058125;28;20288;-71
2021/04/14 11:46:27;;;;;;;2.17;2.07;;;;;;;8.18;39.12;98993.53;5060508;28;20234;-72
2021/04/14 11:48:57;;;;;;;2.90;2.57;;;;;;;8.09;40.04;98990.63;5055059;28;20204;-72
2021/04/14 11:51:31;;;;;;;2.53;2.33;;;;;;;8.51;39.37;98978.53;5059379;28;20230;-72